Time;durP1;ratioP1;P1;durP2;ratioP2;P2;SDS_P1;SDS_P2;PMS_P1;PMS_P2;Temp;Humidity;BMP_temperature;BMP_pressure;BME280_temperature;BME280_humidity;BME280_pressure;Samples;Min_cycle;Max_cycle;Signal;HPM_P1;HPM_P2
2023/08/01 00:02:19;;;;;;;0.88;0.88;;;;;;;;;;5047143;28;20528;-87
2023/08/01 00:04:45;;;;;;;0.80;0.73;;;;;;;;;;5080299;28;20033;-88
2023/08/01 00:07:11;;;;;;;1.70;1.23;;;;;;;;;;5047574;28;20032;-88
2023/08/01 00:09:37;;;;;;;2.00;0.60;;;;;;;;;;5078079;28;20079;-87
2023/08/01 00:12:03;;;;;;;1.25;0.98;;;;;;;;;;5051653;28;20033;-87
2023/08/01 00:14:29;;;;;;;1.13;0.70;;;;;;;;;;5050392;28;20023;-87
2023/08/01 00:16:55;;;;;;;0.98;0.75;;;;;;;;;;5051220;28;20480;-86
2023/08/01 00:19:21;;;;;;;1.13;1.00;;;;;;;;;;5051590;28;20460;-86
2023/08/01 00:21:47;;;;;;;1.75;0.77;;;;;;;;;;5050686;28;20029;-86
2023/08/01 00:24:13;;;;;;;0.80;0.80;;;;;;;;;;5050922;28;20170;-87
2023/08/01 00:26:39;;;;;;;0.52;0.52;;;;;;;;;;5050684;28;20484;-87
2023/08/01 00:29:05;;;;;;;1.20;0.90;;;;;;;;;;5063528;28;20048;-86
2023/08/01 00:31:31;;;;;;;1.75;1.05;;;;;;;;;;5072375;28;20024;-88
2023/08/01 00:33:57;;;;;;;1.80;1.08;;;;;;;;;;5072134;28;20158;-86
2023/08/01 00:36:23;;;;;;;2.45;1.35;;;;;;;;;;5071671;28;20033;-87
2023/08/01 00:38:50;;;;;;;1.10;0.80;;;;;;;;;;5070899;28;20056;-88
2023/08/01 00:41:16;;;;;;;1.05;0.93;;;;;;;;;;5071255;28;20041;-88
2023/08/01 00:43:42;;;;;;;1.10;1.00;;;;;;;;;;5078448;28;20044;-89
2023/08/01 00:46:09;;;;;;;0.93;0.80;;;;;;;;;;5071564;28;20032;-86
2023/08/01 00:48:35;;;;;;;1.08;0.98;;;;;;;;;;5070916;28;20033;-89
2023/08/01 00:51:04;;;;;;;1.02;0.85;;;;;;;;;;5072354;28;20101;-89
2023/08/01 00:53:31;;;;;;;0.90;0.80;;;;;;;;;;5070786;28;20056;-85
2023/08/01 00:55:57;;;;;;;0.93;0.75;;;;;;;;;;5071128;28;20035;-87
2023/08/01 00:58:23;;;;;;;1.30;0.98;;;;;;;;;;5070815;28;20107;-87
2023/08/01 01:00:50;;;;;;;1.42;0.90;;;;;;;;;;5070949;28;20427;-87
2023/08/01 01:03:16;;;;;;;0.77;0.77;;;;;;;;;;5071298;28;20055;-86
2023/08/01 01:06:02;;;;;;;1.20;0.90;;;;;;;;;;5074306;28;20127;-88
2023/08/01 01:08:28;;;;;;;0.65;0.60;;;;;;;;;;5070984;28;20040;-88
2023/08/01 01:10:54;;;;;;;1.40;0.90;;;;;;;;;;5071070;28;20029;-86
2023/08/01 01:13:20;;;;;;;1.88;1.05;;;;;;;;;;5071436;28;20032;-87
2023/08/01 01:15:46;;;;;;;1.38;0.88;;;;;;;;;;5068565;28;20017;-86
2023/08/01 01:18:12;;;;;;;1.17;0.88;;;;;;;;;;5069287;28;20036;-86
2023/08/01 01:20:38;;;;;;;0.52;0.52;;;;;;;;;;5069716;28;20028;-88
2023/08/01 01:23:04;;;;;;;0.85;0.80;;;;;;;;;;5070469;28;20032;-86
2023/08/01 01:25:31;;;;;;;1.08;0.82;;;;;;;;;;5071003;28;20310;-88
2023/08/01 01:27:57;;;;;;;1.05;0.88;;;;;;;;;;5071516;28;20041;-88
2023/08/01 01:30:23;;;;;;;0.63;0.63;;;;;;;;;;5052269;28;20051;-88
2023/08/01 01:32:49;;;;;;;1.27;0.80;;;;;;;;;;5070590;28;20116;-88
2023/08/01 01:35:15;;;;;;;0.73;0.73;;;;;;;;;;5069914;28;20470;-86
2023/08/01 01:37:41;;;;;;;0.60;0.55;;;;;;;;;;5069984;28;20039;-88
2023/08/01 01:40:08;;;;;;;1.00;0.77;;;;;;;;;;5070960;28;20020;-85
2023/08/01 01:42:33;;;;;;;0.80;0.70;;;;;;;;;;5073515;28;20031;-88
2023/08/01 01:44:59;;;;;;;1.25;1.15;;;;;;;;;;5072050;28;20032;-89
2023/08/01 01:47:25;;;;;;;1.15;0.70;;;;;;;;;;5069652;28;20033;-89
2023/08/01 01:49:51;;;;;;;1.15;0.90;;;;;;;;;;5079026;28;20032;-87
2023/08/01 01:52:17;;;;;;;1.38;0.82;;;;;;;;;;5077992;28;20033;-86
2023/08/01 01:54:43;;;;;;;0.82;0.82;;;;;;;;;;5069657;28;20059;-87
2023/08/01 01:57:09;;;;;;;0.50;0.50;;;;;;;;;;5069892;28;20086;-87
2023/08/01 01:59:35;;;;;;;1.25;1.00;;;;;;;;;;5060965;28;20029;-86
2023/08/01 02:02:03;;;;;;;0.73;0.73;;;;;;;;;;5069720;28;20047;-87
2023/08/01 02:04:29;;;;;;;1.42;0.70;;;;;;;;;;5070184;28;20025;-87
2023/08/01 02:06:55;;;;;;;1.02;0.70;;;;;;;;;;5070950;28;20028;-88
2023/08/01 02:09:21;;;;;;;0.70;0.70;;;;;;;;;;5073355;28;20043;-88
2023/08/01 02:11:47;;;;;;;0.73;0.73;;;;;;;;;;5070148;28;20097;-87
2023/08/01 02:14:14;;;;;;;0.45;0.40;;;;;;;;;;5069051;28;20032;-85
2023/08/01 02:16:40;;;;;;;1.15;0.80;;;;;;;;;;5070086;28;20106;-88
2023/08/01 02:19:06;;;;;;;0.70;0.70;;;;;;;;;;5068209;28;20475;-87
2023/08/01 02:21:32;;;;;;;0.95;0.82;;;;;;;;;;5067702;28;20677;-88
2023/08/01 02:23:58;;;;;;;1.08;0.70;;;;;;;;;;5061436;28;20031;-88
2023/08/01 02:26:24;;;;;;;0.95;0.80;;;;;;;;;;5073167;28;20487;-85
2023/08/01 02:28:50;;;;;;;1.38;0.80;;;;;;;;;;5069280;28;20049;-89
2023/08/01 02:31:17;;;;;;;1.05;0.75;;;;;;;;;;5083377;28;20082;-88
2023/08/01 02:33:43;;;;;;;0.93;0.73;;;;;;;;;;5069486;28;20405;-88
2023/08/01 02:36:09;;;;;;;0.50;0.50;;;;;;;;;;5051568;28;20039;-88
2023/08/01 02:38:35;;;;;;;1.67;0.98;;;;;;;;;;5069447;28;20475;-87
2023/08/01 02:41:01;;;;;;;1.23;1.02;;;;;;;;;;5068984;28;20036;-88
2023/08/01 02:43:26;;;;;;;0.73;0.70;;;;;;;;;;5068564;28;20033;-88
2023/08/01 02:45:55;;;;;;;1.00;0.73;;;;;;;;;;5068947;28;20094;-88
2023/08/01 02:48:21;;;;;;;1.40;0.68;;;;;;;;;;5069024;28;20028;-87
2023/08/01 02:50:47;;;;;;;0.68;0.50;;;;;;;;;;5050909;28;20094;-86
2023/08/01 02:53:13;;;;;;;1.08;0.70;;;;;;;;;;5069863;28;20025;-87
2023/08/01 02:55:39;;;;;;;0.77;0.77;;;;;;;;;;5071112;28;20025;-86
2023/08/01 02:58:08;;;;;;;0.50;0.50;;;;;;;;;;5077318;28;20024;-87
2023/08/01 03:00:33;;;;;;;0.98;0.70;;;;;;;;;;5065534;28;20483;-89
2023/08/01 03:02:59;;;;;;;1.15;1.00;;;;;;;;;;5068972;28;20031;-89
2023/08/01 03:05:25;;;;;;;0.63;0.60;;;;;;;;;;5067474;28;20390;-87
2023/08/01 03:07:51;;;;;;;1.23;0.75;;;;;;;;;;5070765;28;20650;-89
2023/08/01 03:10:17;;;;;;;1.35;1.10;;;;;;;;;;5074537;28;20025;-89
2023/08/01 03:12:43;;;;;;;1.30;0.80;;;;;;;;;;5069817;28;20238;-88
2023/08/01 03:15:09;;;;;;;0.60;0.60;;;;;;;;;;5069470;28;20031;-87
2023/08/01 03:17:35;;;;;;;1.23;0.90;;;;;;;;;;5069330;28;20029;-87
2023/08/01 03:20:02;;;;;;;1.13;0.52;;;;;;;;;;5069266;28;20502;-88
2023/08/01 03:22:28;;;;;;;1.10;1.00;;;;;;;;;;5070481;28;20035;-89
2023/08/01 03:24:54;;;;;;;1.85;0.82;;;;;;;;;;5068859;28;20027;-90
2023/08/01 03:27:20;;;;;;;0.80;0.80;;;;;;;;;;5072309;28;20037;-87
2023/08/01 03:29:46;;;;;;;0.70;0.50;;;;;;;;;;5066666;28;20060;-89
2023/08/01 03:32:12;;;;;;;3.88;0.98;;;;;;;;;;5068924;28;20037;-85
2023/08/01 03:34:39;;;;;;;0.50;0.50;;;;;;;;;;5068693;28;20115;-88
2023/08/01 03:37:05;;;;;;;0.80;0.77;;;;;;;;;;5070006;28;20036;-87
2023/08/01 03:39:31;;;;;;;1.52;0.80;;;;;;;;;;5068885;28;20028;-88
2023/08/01 03:41:57;;;;;;;0.68;0.57;;;;;;;;;;5060473;28;20032;-86
2023/08/01 03:44:23;;;;;;;1.38;0.60;;;;;;;;;;5075148;28;20024;-86
2023/08/01 03:46:49;;;;;;;0.93;0.63;;;;;;;;;;5073127;28;20024;-86
2023/08/01 03:49:15;;;;;;;0.50;0.50;;;;;;;;;;5072208;28;20485;-86
2023/08/01 03:51:41;;;;;;;0.93;0.82;;;;;;;;;;5072492;28;20040;-87
2023/08/01 03:54:07;;;;;;;3.30;1.00;;;;;;;;;;5071805;28;20021;-85
2023/08/01 03:56:33;;;;;;;0.80;0.80;;;;;;;;;;5071852;28;20640;-86
2023/08/01 03:58:59;;;;;;;0.82;0.70;;;;;;;;;;5075542;28;20391;-87
2023/08/01 04:01:25;;;;;;;0.80;0.50;;;;;;;;;;5072444;28;20032;-87
2023/08/01 04:03:51;;;;;;;0.60;0.60;;;;;;;;;;5071009;28;20024;-87
2023/08/01 04:06:17;;;;;;;0.70;0.70;;;;;;;;;;5070960;28;20040;-87
2023/08/01 04:08:42;;;;;;;1.08;0.90;;;;;;;;;;5055891;28;20540;-89
2023/08/01 04:11:08;;;;;;;0.63;0.60;;;;;;;;;;5071757;28;20395;-88
2023/08/01 04:13:34;;;;;;;0.82;0.82;;;;;;;;;;5071164;28;20086;-88
2023/08/01 04:16:00;;;;;;;1.27;0.93;;;;;;;;;;5072822;28;20032;-89
2023/08/01 04:18:26;;;;;;;0.63;0.57;;;;;;;;;;5071259;28;20058;-88
2023/08/01 04:20:52;;;;;;;0.43;0.43;;;;;;;;;;5068849;28;20440;-87
2023/08/01 04:23:18;;;;;;;0.68;0.52;;;;;;;;;;5071968;28;20483;-88
2023/08/01 04:25:44;;;;;;;0.63;0.63;;;;;;;;;;5061966;28;20087;-85
2023/08/01 04:28:10;;;;;;;3.78;0.65;;;;;;;;;;5068093;28;20097;-88
2023/08/01 04:30:38;;;;;;;0.80;0.68;;;;;;;;;;5073049;28;20035;-85
2023/08/01 04:33:04;;;;;;;0.60;0.60;;;;;;;;;;5074751;28;20036;-87
2023/08/01 04:35:30;;;;;;;1.52;0.90;;;;;;;;;;5079435;28;20020;-88
2023/08/01 04:37:56;;;;;;;0.98;0.82;;;;;;;;;;5073478;28;20487;-87
2023/08/01 04:40:21;;;;;;;1.05;0.70;;;;;;;;;;5071770;28;20029;-86
2023/08/01 04:42:47;;;;;;;1.63;0.85;;;;;;;;;;5073175;28;20048;-87
2023/08/01 04:45:14;;;;;;;1.17;0.90;;;;;;;;;;5073117;28;20033;-87
2023/08/01 04:47:40;;;;;;;1.08;0.80;;;;;;;;;;5070954;28;20110;-87
2023/08/01 04:50:06;;;;;;;1.73;1.00;;;;;;;;;;5073391;28;20028;-89
2023/08/01 04:52:32;;;;;;;1.02;0.70;;;;;;;;;;5070293;28;20024;-85
2023/08/01 04:54:58;;;;;;;0.70;0.70;;;;;;;;;;5075689;28;20391;-88
2023/08/01 04:57:24;;;;;;;0.80;0.80;;;;;;;;;;5069973;28;20021;-87
2023/08/01 04:59:50;;;;;;;0.80;0.70;;;;;;;;;;5071402;28;20021;-87
2023/08/01 05:02:16;;;;;;;0.70;0.60;;;;;;;;;;5074552;28;20031;-85
2023/08/01 05:04:42;;;;;;;0.73;0.70;;;;;;;;;;5071197;28;20089;-88
2023/08/01 05:07:08;;;;;;;0.68;0.68;;;;;;;;;;5071784;28;20013;-86
2023/08/01 05:09:34;;;;;;;0.90;0.80;;;;;;;;;;5071865;28;20020;-87
2023/08/01 05:12:00;;;;;;;0.50;0.50;;;;;;;;;;5070819;28;20036;-85
2023/08/01 05:14:26;;;;;;;0.75;0.60;;;;;;;;;;5071037;28;20033;-89
2023/08/01 05:16:52;;;;;;;1.05;0.88;;;;;;;;;;5079743;28;20032;-86
2023/08/01 05:19:18;;;;;;;2.50;0.70;;;;;;;;;;5071269;28;20024;-87
2023/08/01 05:21:44;;;;;;;0.80;0.70;;;;;;;;;;5074797;28;20035;-86
2023/08/01 05:24:09;;;;;;;0.50;0.50;;;;;;;;;;5060432;28;20029;-87
2023/08/01 05:26:37;;;;;;;1.35;0.77;;;;;;;;;;5071410;28;20025;-87
2023/08/01 05:29:03;;;;;;;1.65;0.80;;;;;;;;;;5071315;28;20470;-72
2023/08/01 05:31:29;;;;;;;0.70;0.70;;;;;;;;;;5074539;28;20029;-71
2023/08/01 05:33:55;;;;;;;0.70;0.65;;;;;;;;;;5067989;28;20035;-73
2023/08/01 05:36:21;;;;;;;0.80;0.80;;;;;;;;;;5076720;28;20031;-73
2023/08/01 05:38:47;;;;;;;0.68;0.50;;;;;;;;;;5069886;28;20024;-72
2023/08/01 05:41:13;;;;;;;0.70;0.70;;;;;;;;;;5069885;28;20033;-72
2023/08/01 05:43:39;;;;;;;0.77;0.68;;;;;;;;;;5070226;28;20024;-71
2023/08/01 05:46:05;;;;;;;0.57;0.47;;;;;;;;;;5067950;28;20032;-72
2023/08/01 05:48:31;;;;;;;0.52;0.52;;;;;;;;;;5078508;28;20024;-71
2023/08/01 05:50:58;;;;;;;1.08;0.80;;;;;;;;;;5069716;28;20035;-72
2023/08/01 05:53:24;;;;;;;0.70;0.60;;;;;;;;;;5069573;28;20676;-71
2023/08/01 05:55:50;;;;;;;0.82;0.60;;;;;;;;;;5073215;28;20115;-71
2023/08/01 05:58:16;;;;;;;0.70;0.70;;;;;;;;;;5069473;28;20086;-76
2023/08/01 06:00:42;;;;;;;0.50;0.50;;;;;;;;;;5068233;28;20021;-78
2023/08/01 06:03:08;;;;;;;1.05;0.85;;;;;;;;;;5068493;28;20028;-78
2023/08/01 06:05:34;;;;;;;0.90;0.70;;;;;;;;;;5072085;28;20020;-78
2023/08/01 06:08:00;;;;;;;0.60;0.60;;;;;;;;;;5069628;28;20020;-77
2023/08/01 06:10:26;;;;;;;2.47;0.75;;;;;;;;;;5068919;28;20013;-77
2023/08/01 06:12:52;;;;;;;0.85;0.63;;;;;;;;;;5063056;28;20688;-78
2023/08/01 06:15:18;;;;;;;0.60;0.50;;;;;;;;;;5083692;28;20036;-78
2023/08/01 06:17:44;;;;;;;1.05;0.77;;;;;;;;;;5069466;28;20016;-78
2023/08/01 06:20:11;;;;;;;1.98;0.60;;;;;;;;;;5081116;28;20048;-78
2023/08/01 06:22:37;;;;;;;0.60;0.60;;;;;;;;;;5069637;28;20024;-77
2023/08/01 06:25:03;;;;;;;0.77;0.63;;;;;;;;;;5068812;28;20027;-82
2023/08/01 06:27:29;;;;;;;2.10;0.98;;;;;;;;;;5068584;28;20021;-75
2023/08/01 06:29:55;;;;;;;1.20;0.95;;;;;;;;;;5067018;28;20518;-74
2023/08/01 06:32:21;;;;;;;1.05;0.95;;;;;;;;;;5059830;28;20023;-75
2023/08/01 06:34:47;;;;;;;1.52;0.95;;;;;;;;;;5060765;28;20048;-75
2023/08/01 06:37:13;;;;;;;0.50;0.50;;;;;;;;;;5066395;28;20031;-75
2023/08/01 06:39:39;;;;;;;2.35;0.65;;;;;;;;;;5065048;28;20025;-75
2023/08/01 06:42:05;;;;;;;1.63;0.80;;;;;;;;;;5062481;28;20032;-76
2023/08/01 06:44:31;;;;;;;1.38;0.93;;;;;;;;;;5061971;28;20119;-75
2023/08/01 06:46:57;;;;;;;1.98;1.00;;;;;;;;;;5063580;28;20032;-80
2023/08/01 06:49:23;;;;;;;0.82;0.73;;;;;;;;;;5064154;28;20051;-80
2023/08/01 06:51:49;;;;;;;1.05;0.80;;;;;;;;;;5058062;28;20031;-81
2023/08/01 06:54:15;;;;;;;2.28;0.80;;;;;;;;;;5055686;28;20052;-80
2023/08/01 06:56:47;;;;;;;0.90;0.77;;;;;;;;;;5056622;28;20344;-80
2023/08/01 06:59:13;;;;;;;3.65;0.95;;;;;;;;;;5059234;28;21276;-79
2023/08/01 07:01:40;;;;;;;2.65;0.75;;;;;;;;;;5064820;28;20048;-79
2023/08/01 07:04:06;;;;;;;2.75;1.08;;;;;;;;;;5062938;28;20132;-79
2023/08/01 07:06:32;;;;;;;1.10;0.80;;;;;;;;;;5064075;28;20390;-79
2023/08/01 07:08:58;;;;;;;0.88;0.73;;;;;;;;;;5064827;28;20033;-79
2023/08/01 07:11:24;;;;;;;0.68;0.65;;;;;;;;;;5063120;28;20432;-80
2023/08/01 07:13:50;;;;;;;1.05;0.95;;;;;;;;;;5062811;28;20048;-79
2023/08/01 07:16:16;;;;;;;0.90;0.77;;;;;;;;;;5065223;28;20386;-77
2023/08/01 07:18:42;;;;;;;1.40;0.80;;;;;;;;;;5065877;28;20051;-74
2023/08/01 07:21:08;;;;;;;0.95;0.75;;;;;;;;;;5063008;28;20032;-75
2023/08/01 07:23:35;;;;;;;1.00;0.80;;;;;;;;;;5064689;28;20024;-74
2023/08/01 07:26:01;;;;;;;0.70;0.63;;;;;;;;;;5062484;28;20047;-74
2023/08/01 07:28:27;;;;;;;0.80;0.70;;;;;;;;;;5065297;28;20028;-75
2023/08/01 07:31:04;;;;;;;2.10;0.73;;;;;;;;;;5067026;28;20033;-75
2023/08/01 07:33:29;;;;;;;1.80;0.93;;;;;;;;;;5072411;28;20020;-75
2023/08/01 07:35:56;;;;;;;1.15;0.90;;;;;;;;;;5073185;28;20028;-74
2023/08/01 07:38:22;;;;;;;1.00;0.90;;;;;;;;;;5066709;28;20742;-74
2023/08/01 07:40:48;;;;;;;1.40;0.80;;;;;;;;;;5081497;28;20481;-74
2023/08/01 07:43:14;;;;;;;0.60;0.60;;;;;;;;;;5069199;28;20029;-74
2023/08/01 07:45:39;;;;;;;0.63;0.60;;;;;;;;;;5068965;28;20463;-75
2023/08/01 07:48:06;;;;;;;1.00;0.73;;;;;;;;;;5068918;28;20032;-74
2023/08/01 07:50:32;;;;;;;2.72;0.90;;;;;;;;;;5081490;28;20036;-74
2023/08/01 07:52:58;;;;;;;1.20;0.80;;;;;;;;;;5063417;28;20064;-76
2023/08/01 07:55:24;;;;;;;0.60;0.50;;;;;;;;;;5061219;28;20092;-79
2023/08/01 07:57:50;;;;;;;2.40;0.95;;;;;;;;;;5064269;28;20028;-75
2023/08/01 08:00:16;;;;;;;1.38;0.85;;;;;;;;;;5050064;28;20122;-73
2023/08/01 08:02:42;;;;;;;0.50;0.50;;;;;;;;;;5068758;28;20119;-74
2023/08/01 08:05:08;;;;;;;1.27;0.70;;;;;;;;;;5067227;28;20510;-73
2023/08/01 08:07:34;;;;;;;0.88;0.60;;;;;;;;;;5071128;28;20032;-73
2023/08/01 08:10:00;;;;;;;0.60;0.60;;;;;;;;;;5068106;28;20127;-73
2023/08/01 08:12:26;;;;;;;0.80;0.60;;;;;;;;;;5067233;28;20115;-73
2023/08/01 08:14:52;;;;;;;0.63;0.63;;;;;;;;;;5069033;28;20023;-75
2023/08/01 08:17:18;;;;;;;0.73;0.73;;;;;;;;;;5068483;28;20021;-75
2023/08/01 08:19:45;;;;;;;1.98;0.73;;;;;;;;;;5083628;28;20048;-76
2023/08/01 08:22:11;;;;;;;0.65;0.65;;;;;;;;;;5068365;28;20158;-75
2023/08/01 08:24:37;;;;;;;3.10;1.50;;;;;;;;;;5071363;28;20032;-75
2023/08/01 08:27:03;;;;;;;1.50;0.90;;;;;;;;;;5067010;28;20036;-75
2023/08/01 08:29:29;;;;;;;3.03;1.40;;;;;;;;;;5068201;28;20078;-75
2023/08/01 08:31:55;;;;;;;2.15;1.10;;;;;;;;;;5071377;28;20060;-75
2023/08/01 08:34:21;;;;;;;4.22;0.85;;;;;;;;;;5071731;28;20034;-76
2023/08/01 08:36:47;;;;;;;2.78;1.08;;;;;;;;;;5071555;28;20021;-73
2023/08/01 08:39:13;;;;;;;3.55;1.13;;;;;;;;;;5071836;28;20517;-75
2023/08/01 08:41:43;;;;;;;3.55;1.00;;;;;;;;;;5071090;28;20033;-75
2023/08/01 08:44:09;;;;;;;1.05;0.60;;;;;;;;;;5072878;28;20123;-74
2023/08/01 08:46:39;;;;;;;2.13;1.20;;;;;;;;;;5071530;28;20497;-75
2023/08/01 08:49:05;;;;;;;1.20;0.90;;;;;;;;;;5071214;28;20471;-75
2023/08/01 08:51:31;;;;;;;0.80;0.80;;;;;;;;;;5071338;28;20521;-74
2023/08/01 08:53:57;;;;;;;0.60;0.60;;;;;;;;;;5071899;28;20071;-74
2023/08/01 08:56:24;;;;;;;1.02;0.73;;;;;;;;;;5071083;28;20387;-74
2023/08/01 08:58:50;;;;;;;1.00;0.77;;;;;;;;;;5071094;28;20025;-74
2023/08/01 09:01:18;;;;;;;2.95;1.17;;;;;;;;;;5071313;28;20032;-75
2023/08/01 09:03:44;;;;;;;1.00;0.88;;;;;;;;;;5063815;28;20580;-74
2023/08/01 09:06:13;;;;;;;1.48;1.10;;;;;;;;;;5070631;28;20401;-75
2023/08/01 09:08:40;;;;;;;1.83;1.02;;;;;;;;;;5071226;28;20364;-76
2023/08/01 09:11:06;;;;;;;1.65;1.02;;;;;;;;;;5070265;28;20032;-75
2023/08/01 09:13:33;;;;;;;1.33;0.73;;;;;;;;;;5070366;28;20035;-76
2023/08/01 09:15:59;;;;;;;4.75;0.82;;;;;;;;;;5070378;28;20021;-75
2023/08/01 09:18:25;;;;;;;1.00;0.90;;;;;;;;;;5070912;28;20026;-75
2023/08/01 09:20:51;;;;;;;2.30;0.80;;;;;;;;;;5070225;28;20372;-75
2023/08/01 09:23:18;;;;;;;3.53;0.73;;;;;;;;;;5070202;28;20468;-75
2023/08/01 09:25:44;;;;;;;0.75;0.70;;;;;;;;;;5069984;28;20447;-75
2023/08/01 09:28:17;;;;;;;0.80;0.55;;;;;;;;;;5070794;28;20474;-75
2023/08/01 09:30:49;;;;;;;0.85;0.80;;;;;;;;;;5070582;28;20033;-75
2023/08/01 09:33:15;;;;;;;0.50;0.50;;;;;;;;;;5065885;28;20012;-74
2023/08/01 09:35:44;;;;;;;0.75;0.50;;;;;;;;;;5074692;28;20013;-74
2023/08/01 09:38:10;;;;;;;1.70;1.08;;;;;;;;;;5069131;28;20621;-74
2023/08/01 09:40:39;;;;;;;1.40;0.75;;;;;;;;;;5069230;28;20501;-74
2023/08/01 09:43:06;;;;;;;2.70;0.80;;;;;;;;;;5070331;28;20041;-74
2023/08/01 09:45:32;;;;;;;0.98;0.70;;;;;;;;;;5069774;28;20078;-74
2023/08/01 09:47:58;;;;;;;1.08;0.80;;;;;;;;;;5069749;28;20383;-74
2023/08/01 09:50:25;;;;;;;2.63;0.73;;;;;;;;;;5070149;28;20383;-74
2023/08/01 09:52:53;;;;;;;0.70;0.70;;;;;;;;;;5070307;28;20360;-74
2023/08/01 09:55:26;;;;;;;1.02;0.93;;;;;;;;;;5068837;28;20028;-74
2023/08/01 09:57:54;;;;;;;0.98;0.88;;;;;;;;;;5069514;28;20020;-74
2023/08/01 10:00:20;;;;;;;2.13;0.95;;;;;;;;;;5070022;28;20422;-74
2023/08/01 10:02:46;;;;;;;3.30;0.77;;;;;;;;;;5068733;28;20028;-74
2023/08/01 10:05:13;;;;;;;2.50;0.73;;;;;;;;;;5069747;28;20039;-74
2023/08/01 10:07:39;;;;;;;1.27;0.90;;;;;;;;;;5069448;28;20530;-74
2023/08/01 10:10:06;;;;;;;2.38;0.77;;;;;;;;;;5069437;28;20036;-74
2023/08/01 10:12:32;;;;;;;0.43;0.40;;;;;;;;;;5068492;28;20035;-74
2023/08/01 10:14:58;;;;;;;0.52;0.52;;;;;;;;;;5069678;28;20360;-77
2023/08/01 10:17:26;;;;;;;0.75;0.50;;;;;;;;;;5069011;28;20097;-80
2023/08/01 10:19:55;;;;;;;1.20;0.40;;;;;;;;;;5068950;28;20132;-93
2023/08/01 10:22:22;;;;;;;0.35;0.35;;;;;;;;;;5073179;28;20047;-76
2023/08/01 10:24:48;;;;;;;0.77;0.60;;;;;;;;;;5071090;28;20016;-88
2023/08/01 10:27:15;;;;;;;0.50;0.50;;;;;;;;;;5070273;28;20059;-86
2023/08/01 10:29:42;;;;;;;3.40;0.40;;;;;;;;;;5070331;28;20056;-87
2023/08/01 10:32:08;;;;;;;0.45;0.43;;;;;;;;;;5069936;28;20502;-88
2023/08/01 10:34:34;;;;;;;0.85;0.63;;;;;;;;;;5070152;28;20485;-89
2023/08/01 10:37:01;;;;;;;0.60;0.60;;;;;;;;;;5069272;28;20115;-89
2023/08/01 10:39:27;;;;;;;0.40;0.40;;;;;;;;;;5069708;28;20032;-86
2023/08/01 10:41:58;;;;;;;1.27;0.40;;;;;;;;;;5085201;28;20028;-89
2023/08/01 10:44:24;;;;;;;0.22;0.22;;;;;;;;;;5068974;28;20028;-88
2023/08/01 10:46:52;;;;;;;0.60;0.60;;;;;;;;;;5076831;28;20517;-82
2023/08/01 10:49:18;;;;;;;0.73;0.70;;;;;;;;;;5069980;28;20024;-82
2023/08/01 10:51:44;;;;;;;0.65;0.60;;;;;;;;;;5069871;28;20024;-83
2023/08/01 10:54:21;;;;;;;0.40;0.35;;;;;;;;;;5069063;28;20481;-83
2023/08/01 10:56:47;;;;;;;0.47;0.47;;;;;;;;;;5068631;28;20095;-82
2023/08/01 10:59:13;;;;;;;0.55;0.40;;;;;;;;;;5064833;28;20448;-81
2023/08/01 11:01:49;;;;;;;0.40;0.40;;;;;;;;;;5064523;28;20040;-81
2023/08/01 11:04:19;;;;;;;0.47;0.47;;;;;;;;;;5068478;28;20509;-83
2023/08/01 11:06:52;;;;;;;0.77;0.50;;;;;;;;;;5067631;28;20147;-80
2023/08/01 11:09:23;;;;;;;17.17;0.90;;;;;;;;;;5069645;28;20066;-81
2023/08/01 11:11:51;;;;;;;0.88;0.70;;;;;;;;;;5067237;28;20111;-81
2023/08/01 11:14:17;;;;;;;0.55;0.50;;;;;;;;;;5077439;28;20047;-79
2023/08/01 11:16:44;;;;;;;1.08;0.50;;;;;;;;;;5068072;28;20081;-80
2023/08/01 11:19:24;;;;;;;0.65;0.57;;;;;;;;;;5068951;28;20021;-79
2023/08/01 11:21:51;;;;;;;0.57;0.57;;;;;;;;;;5069796;28;20047;-80
2023/08/01 11:24:18;;;;;;;0.40;0.38;;;;;;;;;;5069021;28;20048;-80
2023/08/01 11:26:45;;;;;;;0.55;0.52;;;;;;;;;;5068835;28;20035;-80
2023/08/01 11:29:11;;;;;;;0.70;0.50;;;;;;;;;;5068880;28;20053;-79
2023/08/01 11:31:38;;;;;;;0.85;0.70;;;;;;;;;;5068301;28;20189;-80
2023/08/01 11:34:04;;;;;;;0.50;0.40;;;;;;;;;;5068471;28;20017;-80
2023/08/01 11:36:30;;;;;;;2.47;1.58;;;;;;;;;;5068381;28;20085;-80
2023/08/01 11:38:59;;;;;;;4.10;0.65;;;;;;;;;;5068733;28;20467;-80
2023/08/01 11:41:27;;;;;;;0.50;0.45;;;;;;;;;;5068124;28;20029;-80
2023/08/01 11:43:54;;;;;;;0.40;0.40;;;;;;;;;;5068540;28;20024;-80
2023/08/01 11:46:20;;;;;;;1.75;0.60;;;;;;;;;;5071701;28;20047;-79
2023/08/01 11:48:47;;;;;;;2.00;0.57;;;;;;;;;;5067406;28;20087;-81
2023/08/01 11:51:13;;;;;;;1.17;0.50;;;;;;;;;;5071413;28;20036;-80
2023/08/01 11:53:39;;;;;;;0.65;0.63;;;;;;;;;;5067558;28;20024;-81
2023/08/01 11:56:05;;;;;;;0.60;0.60;;;;;;;;;;5067629;28;20033;-80
2023/08/01 11:58:31;;;;;;;2.63;0.47;;;;;;;;;;5068486;28;20475;-80
2023/08/01 12:01:03;;;;;;;0.73;0.52;;;;;;;;;;5068565;28;20031;-79
2023/08/01 12:03:29;;;;;;;2.28;0.63;;;;;;;;;;5069828;28;20028;-80
2023/08/01 12:06:07;;;;;;;0.50;0.50;;;;;;;;;;5071631;28;20029;-80
2023/08/01 12:08:34;;;;;;;1.20;0.77;;;;;;;;;;5068672;28;20028;-79
2023/08/01 12:11:00;;;;;;;1.10;0.93;;;;;;;;;;5083931;28;20020;-80
2023/08/01 12:13:26;;;;;;;1.95;1.40;;;;;;;;;;5072485;28;20017;-80
2023/08/01 12:15:53;;;;;;;2.15;1.95;;;;;;;;;;5072073;28;20028;-80
2023/08/01 12:18:20;;;;;;;2.55;2.00;;;;;;;;;;5072031;28;20442;-80
2023/08/01 12:20:46;;;;;;;2.85;2.45;;;;;;;;;;5072754;28;20025;-80
2023/08/01 12:23:12;;;;;;;5.15;2.53;;;;;;;;;;5071160;28;20074;-79
2023/08/01 12:25:38;;;;;;;4.07;2.65;;;;;;;;;;5070418;28;20051;-80
2023/08/01 12:28:04;;;;;;;3.72;2.42;;;;;;;;;;5070508;28;20256;-80
2023/08/01 12:30:30;;;;;;;3.08;2.75;;;;;;;;;;5070923;28;20160;-81
2023/08/01 12:32:56;;;;;;;3.25;2.10;;;;;;;;;;5063212;28;20471;-75
2023/08/01 12:35:22;;;;;;;2.50;1.80;;;;;;;;;;5069996;28;20709;-75
2023/08/01 12:37:48;;;;;;;4.90;1.60;;;;;;;;;;5069372;28;20051;-76
2023/08/01 12:40:14;;;;;;;2.33;1.30;;;;;;;;;;5070285;28;20394;-77
2023/08/01 12:42:40;;;;;;;1.55;1.30;;;;;;;;;;5070216;28;20028;-76
2023/08/01 12:45:06;;;;;;;1.70;1.58;;;;;;;;;;5072857;28;20031;-80
2023/08/01 12:47:32;;;;;;;2.42;1.90;;;;;;;;;;5068613;28;20028;-76
2023/08/01 12:49:58;;;;;;;1.77;1.33;;;;;;;;;;5070554;28;20070;-74
2023/08/01 12:52:25;;;;;;;6.72;2.33;;;;;;;;;;5069988;28;20028;-79
2023/08/01 12:54:51;;;;;;;2.00;1.50;;;;;;;;;;5071752;28;20029;-78
2023/08/01 12:57:17;;;;;;;1.30;1.20;;;;;;;;;;5070771;28;20032;-78
2023/08/01 12:59:43;;;;;;;1.40;1.20;;;;;;;;;;5076161;28;20070;-77
2023/08/01 13:02:09;;;;;;;1.33;1.23;;;;;;;;;;5081798;28;20028;-77
2023/08/01 13:04:35;;;;;;;1.45;1.30;;;;;;;;;;5070853;28;20040;-77
2023/08/01 13:07:01;;;;;;;0.90;0.90;;;;;;;;;;5071741;28;20056;-79
2023/08/01 13:09:27;;;;;;;1.75;1.10;;;;;;;;;;5070324;28;20057;-78
2023/08/01 13:11:53;;;;;;;1.35;1.23;;;;;;;;;;5068993;28;20031;-79
2023/08/01 13:14:19;;;;;;;1.20;1.02;;;;;;;;;;5070105;28;20530;-78
2023/08/01 13:16:45;;;;;;;2.75;1.05;;;;;;;;;;5070661;28;20028;-77
2023/08/01 13:19:11;;;;;;;14.82;1.52;;;;;;;;;;5070707;28;20035;-82
2023/08/01 13:21:37;;;;;;;7.13;1.48;;;;;;;;;;5074156;28;20119;-77
2023/08/01 13:24:04;;;;;;;1.45;1.33;;;;;;;;;;5069673;28;20024;-76
2023/08/01 13:26:31;;;;;;;2.25;1.10;;;;;;;;;;5072675;28;20483;-76
2023/08/01 13:28:57;;;;;;;1.98;1.10;;;;;;;;;;5066656;28;20053;-76
2023/08/01 13:31:23;;;;;;;1.30;1.20;;;;;;;;;;5071456;28;20037;-76
2023/08/01 13:33:49;;;;;;;1.40;1.10;;;;;;;;;;5069888;28;20043;-77
2023/08/01 13:36:15;;;;;;;1.40;1.30;;;;;;;;;;5068733;28;20028;-76
2023/08/01 13:38:41;;;;;;;2.33;1.10;;;;;;;;;;5069668;28;20052;-76
2023/08/01 13:41:07;;;;;;;1.15;0.90;;;;;;;;;;5067495;28;20040;-77
2023/08/01 13:43:33;;;;;;;1.33;0.90;;;;;;;;;;5074684;28;20021;-76
2023/08/01 13:45:59;;;;;;;1.80;1.45;;;;;;;;;;5066570;28;20376;-76
2023/08/01 13:48:25;;;;;;;1.90;1.10;;;;;;;;;;5067066;28;20553;-77
2023/08/01 13:50:51;;;;;;;1.80;1.00;;;;;;;;;;5067838;28;20544;-76
2023/08/01 13:53:18;;;;;;;1.00;0.80;;;;;;;;;;5066819;28;20021;-76
2023/08/01 13:55:44;;;;;;;1.60;0.90;;;;;;;;;;5067774;28;20028;-77
2023/08/01 13:58:10;;;;;;;1.50;1.10;;;;;;;;;;5068857;28;20045;-77
2023/08/01 14:00:36;;;;;;;1.60;1.10;;;;;;;;;;5069367;28;20028;-76
2023/08/01 14:03:02;;;;;;;1.88;0.90;;;;;;;;;;5064085;28;20029;-76
2023/08/01 14:05:28;;;;;;;3.25;0.90;;;;;;;;;;5065868;28;20498;-76
2023/08/01 14:07:54;;;;;;;1.60;0.93;;;;;;;;;;5067691;28;20024;-77
2023/08/01 14:10:21;;;;;;;0.90;0.90;;;;;;;;;;5067016;28;20040;-77
2023/08/01 14:12:47;;;;;;;0.80;0.80;;;;;;;;;;5070922;28;20025;-76
2023/08/01 14:15:13;;;;;;;1.08;0.80;;;;;;;;;;5069844;28;20501;-76
2023/08/01 14:17:39;;;;;;;0.98;0.90;;;;;;;;;;5066192;28;20023;-76
2023/08/01 14:20:06;;;;;;;1.50;0.95;;;;;;;;;;5070922;28;20104;-76
2023/08/01 14:22:32;;;;;;;0.80;0.80;;;;;;;;;;5068175;28;20110;-77
2023/08/01 14:24:58;;;;;;;2.17;1.00;;;;;;;;;;5069838;28;20028;-77
2023/08/01 14:27:24;;;;;;;1.33;1.10;;;;;;;;;;5066960;28;20094;-77
2023/08/01 14:29:49;;;;;;;4.05;0.70;;;;;;;;;;5068143;28;20032;-77
2023/08/01 14:32:18;;;;;;;2.58;1.30;;;;;;;;;;5067731;28;20086;-77
2023/08/01 14:34:44;;;;;;;1.73;1.00;;;;;;;;;;5066381;28;20023;-78
2023/08/01 14:37:10;;;;;;;1.15;1.00;;;;;;;;;;5072238;28;20363;-77
2023/08/01 14:39:36;;;;;;;1.35;1.05;;;;;;;;;;5067802;28;20032;-76